Terminal Aerodrome Forecast
Issued by NWS

Home | Current Version | Previous Version | Text Only | Print | Product List | Glossary On
Versions: 1 2 3 4 5 6 7 8 9 10 11 12 13 14 15 16 17
000
FTUS43 KBIS 230541
TAFMOT
TAF
KMOT 230541Z 2306/2406 28019G27KT P6SM BKN150 WS020/31035KT
     FM230900 28022G35KT P6SM VCSH BKN060
     FM231100 30018G24KT P6SM VCSH OVC035 WS020/32035KT
     FM231400 29022G31KT P6SM VCSH BKN050
     FM231800 30027G36KT P6SM BKN060
     FM240100 30015G20KT P6SM FEW050 WS020/34035KT=

USA.gov is the U.S. government's official web portal to all federal, state and local government web resources and services.